sensor_id;sensor_type;location;lat;lon;timestamp;pressure;altitude;pressure_sealevel;temperature;humidity
20612;BME280;10465;42.686;23.364;2023-05-25T00:00:11;94935.78;;;18.71;73.74
20612;BME280;10465;42.686;23.364;2023-05-25T00:02:39;94927.94;;;18.62;73.29
20612;BME280;10465;42.686;23.364;2023-05-25T00:05:06;94894.28;;;18.26;74.79
20612;BME280;10465;42.686;23.364;2023-05-25T00:07:32;94959.38;;;18.46;75.71
20612;BME280;10465;42.686;23.364;2023-05-25T00:09:57;94950.03;;;18.36;76.09
20612;BME280;10465;42.686;23.364;2023-05-25T00:12:23;94904.75;;;18.12;75.88
20612;BME280;10465;42.686;23.364;2023-05-25T00:14:48;94924.22;;;18.28;75.75
20612;BME280;10465;42.686;23.364;2023-05-25T00:17:14;94950.22;;;18.47;75.31
20612;BME280;10465;42.686;23.364;2023-05-25T00:19:43;94938.88;;;18.34;75.09
20612;BME280;10465;42.686;23.364;2023-05-25T00:22:09;94951.41;;;18.30;75.72
20612;BME280;10465;42.686;23.364;2023-05-25T00:24:35;94900.91;;;17.93;75.21
20612;BME280;10465;42.686;23.364;2023-05-25T00:27:01;94945.41;;;18.17;74.88
20612;BME280;10465;42.686;23.364;2023-05-25T00:29:27;94938.91;;;17.99;75.50
20612;BME280;10465;42.686;23.364;2023-05-25T00:31:53;94930.59;;;18.04;76.07
20612;BME280;10465;42.686;23.364;2023-05-25T00:34:18;94929.25;;;18.14;75.87
20612;BME280;10465;42.686;23.364;2023-05-25T00:36:44;94942.53;;;18.26;75.61
20612;BME280;10465;42.686;23.364;2023-05-25T00:39:16;94946.41;;;18.28;75.24
20612;BME280;10465;42.686;23.364;2023-05-25T00:41:46;94948.31;;;18.28;74.95
20612;BME280;10465;42.686;23.364;2023-05-25T00:44:13;94953.31;;;18.29;75.28
20612;BME280;10465;42.686;23.364;2023-05-25T00:46:50;94950.34;;;18.35;75.20
20612;BME280;10465;42.686;23.364;2023-05-25T00:49:18;94964.25;;;18.40;74.99
20612;BME280;10465;42.686;23.364;2023-05-25T00:51:44;94962.72;;;18.39;74.82
20612;BME280;10465;42.686;23.364;2023-05-25T00:54:15;94970.31;;;18.37;75.08
20612;BME280;10465;42.686;23.364;2023-05-25T00:56:45;94947.97;;;18.29;74.78
20612;BME280;10465;42.686;23.364;2023-05-25T00:59:14;94967.78;;;18.44;74.84
20612;BME280;10465;42.686;23.364;2023-05-25T01:01:42;94962.72;;;18.39;75.55
20612;BME280;10465;42.686;23.364;2023-05-25T01:04:10;94968.63;;;18.29;76.01
20612;BME280;10465;42.686;23.364;2023-05-25T01:06:42;94976.03;;;18.36;76.13
20612;BME280;10465;42.686;23.364;2023-05-25T01:09:10;94978.56;;;18.28;76.41
20612;BME280;10465;42.686;23.364;2023-05-25T01:11:39;94968.13;;;18.23;76.47
20612;BME280;10465;42.686;23.364;2023-05-25T01:14:07;94952.97;;;18.12;76.64
20612;BME280;10465;42.686;23.364;2023-05-25T01:16:33;94936.56;;;17.97;76.59
20612;BME280;10465;42.686;23.364;2023-05-25T01:18:59;94971.59;;;18.24;76.54
20612;BME280;10465;42.686;23.364;2023-05-25T01:21:26;94965.09;;;18.25;76.81
20612;BME280;10465;42.686;23.364;2023-05-25T01:24:14;94911.88;;;17.88;76.85
20612;BME280;10465;42.686;23.364;2023-05-25T01:26:52;94971.84;;;18.19;77.06
20612;BME280;10465;42.686;23.364;2023-05-25T01:29:20;94967.19;;;18.16;76.88
20612;BME280;10465;42.686;23.364;2023-05-25T01:31:46;94955.19;;;18.10;77.28
20612;BME280;10465;42.686;23.364;2023-05-25T01:34:12;94955.56;;;18.08;77.52
20612;BME280;10465;42.686;23.364;2023-05-25T01:36:38;94940.00;;;17.98;77.31
20612;BME280;10465;42.686;23.364;2023-05-25T01:39:05;94943.47;;;17.98;77.17
20612;BME280;10465;42.686;23.364;2023-05-25T01:41:30;94951.34;;;18.07;77.97
20612;BME280;10465;42.686;23.364;2023-05-25T01:43:56;94954.25;;;18.02;77.85
20612;BME280;10465;42.686;23.364;2023-05-25T01:46:35;94952.72;;;18.01;77.50
20612;BME280;10465;42.686;23.364;2023-05-25T01:51:58;94937.13;;;17.87;77.75
20612;BME280;10465;42.686;23.364;2023-05-25T01:54:34;94933.91;;;17.82;78.23
20612;BME280;10465;42.686;23.364;2023-05-25T01:57:03;94948.34;;;17.77;78.75
20612;BME280;10465;42.686;23.364;2023-05-25T01:59:30;94946.97;;;17.67;79.26
20612;BME280;10465;42.686;23.364;2023-05-25T02:01:58;94951.56;;;17.51;79.88
20612;BME280;10465;42.686;23.364;2023-05-25T02:04:25;94932.06;;;17.35;80.16
20612;BME280;10465;42.686;23.364;2023-05-25T02:06:51;94956.47;;;17.49;80.66
20612;BME280;10465;42.686;23.364;2023-05-25T02:09:17;94956.19;;;17.54;80.22
20612;BME280;10465;42.686;23.364;2023-05-25T02:11:42;94953.88;;;17.52;80.15
20612;BME280;10465;42.686;23.364;2023-05-25T02:14:07;94942.75;;;17.35;80.37
20612;BME280;10465;42.686;23.364;2023-05-25T02:16:33;94907.63;;;17.04;80.85
20612;BME280;10465;42.686;23.364;2023-05-25T02:18:59;94933.00;;;17.11;81.37
20612;BME280;10465;42.686;23.364;2023-05-25T02:21:24;94961.72;;;17.29;81.52
20612;BME280;10465;42.686;23.364;2023-05-25T02:23:51;94958.13;;;17.22;81.87
20612;BME280;10465;42.686;23.364;2023-05-25T02:26:18;94937.22;;;16.96;82.63
20612;BME280;10465;42.686;23.364;2023-05-25T02:28:43;94962.75;;;17.09;82.76
20612;BME280;10465;42.686;23.364;2023-05-25T02:31:09;94971.31;;;17.15;82.75
20612;BME280;10465;42.686;23.364;2023-05-25T02:33:35;94945.22;;;16.96;82.67
20612;BME280;10465;42.686;23.364;2023-05-25T02:36:00;94972.94;;;17.19;82.64
20612;BME280;10465;42.686;23.364;2023-05-25T02:38:26;94984.69;;;17.15;82.63
20612;BME280;10465;42.686;23.364;2023-05-25T02:40:52;94965.22;;;16.86;83.17
20612;BME280;10465;42.686;23.364;2023-05-25T02:43:17;94994.41;;;17.07;82.96
20612;BME280;10465;42.686;23.364;2023-05-25T02:45:42;95001.88;;;17.14;82.65
20612;BME280;10465;42.686;23.364;2023-05-25T02:48:08;94989.78;;;17.20;82.25
20612;BME280;10465;42.686;23.364;2023-05-25T02:50:34;94990.13;;;17.18;82.21
20612;BME280;10465;42.686;23.364;2023-05-25T02:52:59;94994.53;;;17.26;82.02
20612;BME280;10465;42.686;23.364;2023-05-25T02:55:25;95002.22;;;17.28;81.76
20612;BME280;10465;42.686;23.364;2023-05-25T02:57:51;94991.84;;;17.11;82.06
20612;BME280;10465;42.686;23.364;2023-05-25T03:00:17;94984.75;;;17.02;81.99
20612;BME280;10465;42.686;23.364;2023-05-25T03:02:43;94976.94;;;17.10;81.46
20612;BME280;10465;42.686;23.364;2023-05-25T03:05:10;94979.94;;;17.08;81.59
20612;BME280;10465;42.686;23.364;2023-05-25T03:08:02;94972.25;;;17.07;81.39
20612;BME280;10465;42.686;23.364;2023-05-25T03:10:36;94971.13;;;17.08;81.13
20612;BME280;10465;42.686;23.364;2023-05-25T03:13:02;95004.53;;;17.29;81.36
20612;BME280;10465;42.686;23.364;2023-05-25T03:15:27;95004.13;;;17.27;81.22
20612;BME280;10465;42.686;23.364;2023-05-25T03:17:52;95017.31;;;17.20;81.46
20612;BME280;10465;42.686;23.364;2023-05-25T03:20:21;94984.41;;;17.04;81.64
20612;BME280;10465;42.686;23.364;2023-05-25T03:22:48;95012.97;;;17.16;82.25
20612;BME280;10465;42.686;23.364;2023-05-25T03:25:14;95008.16;;;17.21;81.82
20612;BME280;10465;42.686;23.364;2023-05-25T03:27:40;95007.72;;;17.19;81.40
20612;BME280;10465;42.686;23.364;2023-05-25T03:30:06;94986.75;;;17.05;81.46
20612;BME280;10465;42.686;23.364;2023-05-25T03:32:32;95022.75;;;17.24;81.87
20612;BME280;10465;42.686;23.364;2023-05-25T03:34:58;95010.66;;;17.14;81.91
20612;BME280;10465;42.686;23.364;2023-05-25T03:37:23;95025.69;;;17.19;82.28
20612;BME280;10465;42.686;23.364;2023-05-25T03:39:49;94978.91;;;16.85;82.67
20612;BME280;10465;42.686;23.364;2023-05-25T03:42:14;94997.44;;;17.05;82.34
20612;BME280;10465;42.686;23.364;2023-05-25T03:44:40;95022.47;;;17.13;81.61
20612;BME280;10465;42.686;23.364;2023-05-25T03:47:05;95005.22;;;17.11;80.03
20612;BME280;10465;42.686;23.364;2023-05-25T03:49:31;95011.00;;;17.13;78.38
20612;BME280;10465;42.686;23.364;2023-05-25T03:51:57;95024.91;;;17.18;77.40
20612;BME280;10465;42.686;23.364;2023-05-25T03:54:24;94999.38;;;16.93;78.15
20612;BME280;10465;42.686;23.364;2023-05-25T03:56:50;95039.16;;;17.22;79.23
20612;BME280;10465;42.686;23.364;2023-05-25T03:59:15;94974.81;;;16.87;81.31
20612;BME280;10465;42.686;23.364;2023-05-25T04:01:41;95006.34;;;17.10;82.09
20612;BME280;10465;42.686;23.364;2023-05-25T04:04:06;95028.09;;;17.24;82.53
20612;BME280;10465;42.686;23.364;2023-05-25T04:06:32;95028.09;;;17.24;81.48
20612;BME280;10465;42.686;23.364;2023-05-25T04:09:02;94982.66;;;16.96;80.14
20612;BME280;10465;42.686;23.364;2023-05-25T04:11:29;94982.66;;;16.96;79.50
20612;BME280;10465;42.686;23.364;2023-05-25T04:13:54;95023.53;;;17.24;79.01
20612;BME280;10465;42.686;23.364;2023-05-25T04:16:20;95043.72;;;17.38;78.15
20612;BME280;10465;42.686;23.364;2023-05-25T04:18:46;95037.28;;;17.39;77.28
20612;BME280;10465;42.686;23.364;2023-05-25T04:21:11;95037.59;;;17.37;76.68
20612;BME280;10465;42.686;23.364;2023-05-25T04:23:37;95050.06;;;17.61;76.23
20612;BME280;10465;42.686;23.364;2023-05-25T04:26:02;95027.69;;;17.53;74.78
20612;BME280;10465;42.686;23.364;2023-05-25T04:28:28;95049.03;;;17.66;74.09
20612;BME280;10465;42.686;23.364;2023-05-25T04:30:53;95042.06;;;17.77;74.00
20612;BME280;10465;42.686;23.364;2023-05-25T04:33:22;95057.94;;;17.86;73.65
20612;BME280;10465;42.686;23.364;2023-05-25T04:35:47;95062.63;;;17.89;73.56
20612;BME280;10465;42.686;23.364;2023-05-25T04:38:15;95069.63;;;17.93;73.54
20612;BME280;10465;42.686;23.364;2023-05-25T04:40:42;95075.50;;;17.99;73.74
20612;BME280;10465;42.686;23.364;2023-05-25T04:43:07;95061.75;;;17.85;73.96
20612;BME280;10465;42.686;23.364;2023-05-25T04:45:35;95050.09;;;17.93;73.57
20612;BME280;10465;42.686;23.364;2023-05-25T04:48:01;95070.47;;;17.97;74.05
20612;BME280;10465;42.686;23.364;2023-05-25T04:50:27;95069.53;;;18.06;73.75
20612;BME280;10465;42.686;23.364;2023-05-25T04:52:53;95048.78;;;18.02;73.27
20612;BME280;10465;42.686;23.364;2023-05-25T04:55:18;95057.84;;;18.14;72.87
20612;BME280;10465;42.686;23.364;2023-05-25T04:57:44;95014.88;;;17.91;72.73
20612;BME280;10465;42.686;23.364;2023-05-25T05:00:09;95052.38;;;18.26;72.91
20612;BME280;10465;42.686;23.364;2023-05-25T05:02:36;95049.44;;;18.31;74.14
20612;BME280;10465;42.686;23.364;2023-05-25T05:05:02;95044.78;;;18.28;74.08
20612;BME280;10465;42.686;23.364;2023-05-25T05:07:28;95032.03;;;18.06;74.11
20612;BME280;10465;42.686;23.364;2023-05-25T05:09:53;95059.47;;;18.18;74.33
20612;BME280;10465;42.686;23.364;2023-05-25T05:12:19;95052.22;;;18.19;75.30
20612;BME280;10465;42.686;23.364;2023-05-25T05:14:44;95058.44;;;18.23;75.52
20612;BME280;10465;42.686;23.364;2023-05-25T05:17:10;95051.03;;;18.16;75.60
20612;BME280;10465;42.686;23.364;2023-05-25T05:19:36;95064.16;;;18.21;76.90
20612;BME280;10465;42.686;23.364;2023-05-25T05:22:01;95058.19;;;18.28;77.33
20612;BME280;10465;42.686;23.364;2023-05-25T05:24:27;95061.03;;;18.35;76.64
20612;BME280;10465;42.686;23.364;2023-05-25T05:26:52;95061.59;;;18.44;75.72
20612;BME280;10465;42.686;23.364;2023-05-25T05:29:17;95066.41;;;18.54;74.47
20612;BME280;10465;42.686;23.364;2023-05-25T05:31:44;95059.56;;;18.57;74.33
20612;BME280;10465;42.686;23.364;2023-05-25T05:34:09;95041.16;;;18.56;75.21
20612;BME280;10465;42.686;23.364;2023-05-25T05:36:35;95061.97;;;18.62;75.37
20612;BME280;10465;42.686;23.364;2023-05-25T05:39:01;95074.94;;;18.76;75.30
20612;BME280;10465;42.686;23.364;2023-05-25T05:41:27;95079.25;;;18.81;74.60
20612;BME280;10465;42.686;23.364;2023-05-25T05:43:53;95042.88;;;18.64;74.16
20612;BME280;10465;42.686;23.364;2023-05-25T05:46:19;95061.41;;;18.88;73.06
20612;BME280;10465;42.686;23.364;2023-05-25T05:48:45;95079.69;;;19.02;73.07
20612;BME280;10465;42.686;23.364;2023-05-25T05:51:10;95089.50;;;19.14;73.27
20612;BME280;10465;42.686;23.364;2023-05-25T05:53:36;95088.06;;;19.20;73.47
20612;BME280;10465;42.686;23.364;2023-05-25T05:56:02;95082.91;;;19.31;74.09
20612;BME280;10465;42.686;23.364;2023-05-25T05:58:30;95067.19;;;19.29;72.77
20612;BME280;10465;42.686;23.364;2023-05-25T06:00:56;95083.91;;;19.42;72.02
20612;BME280;10465;42.686;23.364;2023-05-25T06:03:24;95057.22;;;19.30;72.09
20612;BME280;10465;42.686;23.364;2023-05-25T06:05:51;95086.34;;;19.50;72.32
20612;BME280;10465;42.686;23.364;2023-05-25T06:08:17;95067.13;;;19.48;71.78
20612;BME280;10465;42.686;23.364;2023-05-25T06:10:42;95067.63;;;19.54;71.43
20612;BME280;10465;42.686;23.364;2023-05-25T06:13:07;95055.28;;;19.49;72.07
20612;BME280;10465;42.686;23.364;2023-05-25T06:15:34;95078.69;;;19.72;72.34
20612;BME280;10465;42.686;23.364;2023-05-25T06:18:00;95083.28;;;19.71;71.02
20612;BME280;10465;42.686;23.364;2023-05-25T06:20:25;95085.28;;;19.74;71.30
20612;BME280;10465;42.686;23.364;2023-05-25T06:22:50;95089.25;;;19.84;72.77
20612;BME280;10465;42.686;23.364;2023-05-25T06:25:16;95046.38;;;19.65;71.70
20612;BME280;10465;42.686;23.364;2023-05-25T06:27:41;95069.69;;;19.84;70.57
20612;BME280;10465;42.686;23.364;2023-05-25T06:30:07;95058.34;;;19.71;69.86
20612;BME280;10465;42.686;23.364;2023-05-25T06:32:33;95084.72;;;19.88;69.72
20612;BME280;10465;42.686;23.364;2023-05-25T06:34:59;95077.88;;;19.91;69.92
20612;BME280;10465;42.686;23.364;2023-05-25T06:37:26;95087.78;;;20.10;68.35
20612;BME280;10465;42.686;23.364;2023-05-25T06:39:51;95090.56;;;20.17;67.24
20612;BME280;10465;42.686;23.364;2023-05-25T06:42:17;95095.22;;;20.20;66.99
20612;BME280;10465;42.686;23.364;2023-05-25T06:44:42;95076.72;;;20.15;67.69
20612;BME280;10465;42.686;23.364;2023-05-25T06:47:08;95096.56;;;20.33;67.51
20612;BME280;10465;42.686;23.364;2023-05-25T06:49:33;95089.75;;;20.39;67.41
20612;BME280;10465;42.686;23.364;2023-05-25T06:51:59;95090.59;;;20.43;67.12
20612;BME280;10465;42.686;23.364;2023-05-25T06:54:24;95075.50;;;20.35;67.58
20612;BME280;10465;42.686;23.364;2023-05-25T06:56:50;95074.78;;;20.38;67.39
20612;BME280;10465;42.686;23.364;2023-05-25T06:59:16;95083.81;;;20.53;67.08
20612;BME280;10465;42.686;23.364;2023-05-25T07:01:45;95093.25;;;20.66;66.76
20612;BME280;10465;42.686;23.364;2023-05-25T07:04:10;95075.81;;;20.57;67.39
20612;BME280;10465;42.686;23.364;2023-05-25T07:06:36;95081.84;;;20.77;67.21
20612;BME280;10465;42.686;23.364;2023-05-25T07:09:01;95079.97;;;20.81;66.52
20612;BME280;10465;42.686;23.364;2023-05-25T07:11:27;95067.56;;;20.72;67.30
20612;BME280;10465;42.686;23.364;2023-05-25T07:13:52;95062.25;;;20.76;66.77
20612;BME280;10465;42.686;23.364;2023-05-25T07:16:18;95072.06;;;20.91;66.25
20612;BME280;10465;42.686;23.364;2023-05-25T07:18:43;95084.84;;;21.02;66.08
20612;BME280;10465;42.686;23.364;2023-05-25T07:21:09;95067.88;;;20.97;65.92
20612;BME280;10465;42.686;23.364;2023-05-25T07:23:36;95063.00;;;21.07;65.77
20612;BME280;10465;42.686;23.364;2023-05-25T07:26:01;95073.53;;;21.19;65.64
20612;BME280;10465;42.686;23.364;2023-05-25T07:28:27;95081.31;;;21.28;66.09
20612;BME280;10465;42.686;23.364;2023-05-25T07:30:53;95088.63;;;21.27;65.56
20612;BME280;10465;42.686;23.364;2023-05-25T07:33:18;95083.19;;;21.23;66.28
20612;BME280;10465;42.686;23.364;2023-05-25T07:35:43;95087.06;;;21.26;67.44
20612;BME280;10465;42.686;23.364;2023-05-25T07:38:09;95095.91;;;21.27;67.57
20612;BME280;10465;42.686;23.364;2023-05-25T07:40:34;95051.44;;;21.03;67.40
20612;BME280;10465;42.686;23.364;2023-05-25T07:43:01;95087.88;;;21.30;68.02
20612;BME280;10465;42.686;23.364;2023-05-25T07:45:26;95095.66;;;21.35;67.33
20612;BME280;10465;42.686;23.364;2023-05-25T07:47:51;95090.22;;;21.32;67.79
20612;BME280;10465;42.686;23.364;2023-05-25T07:50:17;95085.88;;;21.23;68.12
20612;BME280;10465;42.686;23.364;2023-05-25T07:52:43;95092.09;;;21.28;68.50
20612;BME280;10465;42.686;23.364;2023-05-25T07:55:08;95088.44;;;21.13;69.65
20612;BME280;10465;42.686;23.364;2023-05-25T07:57:34;95091.91;;;21.13;70.00
20612;BME280;10465;42.686;23.364;2023-05-25T08:00:00;95107.63;;;21.08;70.46
20612;BME280;10465;42.686;23.364;2023-05-25T08:02:25;95119.56;;;21.10;70.56
20612;BME280;10465;42.686;23.364;2023-05-25T08:04:51;95101.22;;;20.89;70.71
20612;BME280;10465;42.686;23.364;2023-05-25T08:07:18;95119.22;;;20.85;70.91
20612;BME280;10465;42.686;23.364;2023-05-25T08:09:44;95115.94;;;20.69;71.71
20612;BME280;10465;42.686;23.364;2023-05-25T08:12:10;95126.25;;;20.63;71.84
20612;BME280;10465;42.686;23.364;2023-05-25T08:14:35;95119.72;;;20.41;71.75
20612;BME280;10465;42.686;23.364;2023-05-25T08:17:01;95138.59;;;20.45;72.09
20612;BME280;10465;42.686;23.364;2023-05-25T08:19:27;95138.53;;;20.38;72.08
20612;BME280;10465;42.686;23.364;2023-05-25T08:21:55;95141.41;;;20.25;72.77
20612;BME280;10465;42.686;23.364;2023-05-25T08:24:21;95152.88;;;20.22;72.95
20612;BME280;10465;42.686;23.364;2023-05-25T08:26:46;95156.97;;;20.16;73.11
20612;BME280;10465;42.686;23.364;2023-05-25T08:29:13;95144.03;;;19.99;72.79
20612;BME280;10465;42.686;23.364;2023-05-25T08:31:38;95160.78;;;19.92;73.76
20612;BME280;10465;42.686;23.364;2023-05-25T08:34:06;95155.25;;;19.82;74.66
20612;BME280;10465;42.686;23.364;2023-05-25T08:36:31;95142.97;;;19.61;76.25
20612;BME280;10465;42.686;23.364;2023-05-25T08:38:58;95146.78;;;19.41;77.87
20612;BME280;10465;42.686;23.364;2023-05-25T08:41:23;95163.91;;;19.36;79.01
20612;BME280;10465;42.686;23.364;2023-05-25T08:43:49;95150.44;;;19.13;79.45
20612;BME280;10465;42.686;23.364;2023-05-25T08:46:27;95161.78;;;19.07;80.96
20612;BME280;10465;42.686;23.364;2023-05-25T08:48:59;95156.63;;;18.98;81.70
20612;BME280;10465;42.686;23.364;2023-05-25T08:51:29;95150.28;;;18.71;83.33
20612;BME280;10465;42.686;23.364;2023-05-25T08:54:06;95160.13;;;18.67;85.18
20612;BME280;10465;42.686;23.364;2023-05-25T08:56:35;95168.88;;;18.80;86.81
20612;BME280;10465;42.686;23.364;2023-05-25T08:59:01;95166.47;;;18.74;87.44
20612;BME280;10465;42.686;23.364;2023-05-25T09:01:32;95168.28;;;18.70;88.74
20612;BME280;10465;42.686;23.364;2023-05-25T09:04:02;95166.03;;;18.57;88.76
20612;BME280;10465;42.686;23.364;2023-05-25T09:06:28;95182.28;;;18.64;89.28
20612;BME280;10465;42.686;23.364;2023-05-25T09:08:54;95166.38;;;18.55;89.33
20612;BME280;10465;42.686;23.364;2023-05-25T09:11:20;95180.47;;;18.68;88.75
20612;BME280;10465;42.686;23.364;2023-05-25T09:13:46;95179.16;;;18.62;88.09
20612;BME280;10465;42.686;23.364;2023-05-25T09:16:12;95191.88;;;18.65;88.47
20612;BME280;10465;42.686;23.364;2023-05-25T09:18:37;95158.97;;;18.48;88.86
20612;BME280;10465;42.686;23.364;2023-05-25T09:21:04;95184.63;;;18.65;89.09
20612;BME280;10465;42.686;23.364;2023-05-25T09:23:30;95185.13;;;18.55;87.88
20612;BME280;10465;42.686;23.364;2023-05-25T09:25:56;95185.31;;;18.62;87.75
20612;BME280;10465;42.686;23.364;2023-05-25T09:28:22;95181.25;;;18.68;89.03
20612;BME280;10465;42.686;23.364;2023-05-25T09:30:47;95173.31;;;18.72;90.23
20612;BME280;10465;42.686;23.364;2023-05-25T09:33:14;95174.94;;;18.76;90.53
20612;BME280;10465;42.686;23.364;2023-05-25T09:35:44;95172.06;;;18.85;90.44
20612;BME280;10465;42.686;23.364;2023-05-25T09:38:12;95173.09;;;18.96;90.55
20612;BME280;10465;42.686;23.364;2023-05-25T09:40:39;95176.34;;;19.06;92.57
20612;BME280;10465;42.686;23.364;2023-05-25T09:43:05;95150.03;;;18.95;91.01
20612;BME280;10465;42.686;23.364;2023-05-25T09:45:30;95147.53;;;19.02;89.09
20612;BME280;10465;42.686;23.364;2023-05-25T09:47:57;95166.41;;;19.25;89.02
20612;BME280;10465;42.686;23.364;2023-05-25T09:50:23;95164.56;;;19.30;88.71
20612;BME280;10465;42.686;23.364;2023-05-25T09:52:50;95164.22;;;19.31;87.26
20612;BME280;10465;42.686;23.364;2023-05-25T09:55:17;95155.03;;;19.32;86.53
20612;BME280;10465;42.686;23.364;2023-05-25T09:57:42;95161.91;;;19.49;87.89
20612;BME280;10465;42.686;23.364;2023-05-25T10:00:09;95137.50;;;19.38;88.26
20612;BME280;10465;42.686;23.364;2023-05-25T10:02:36;95145.13;;;19.56;88.87
20612;BME280;10465;42.686;23.364;2023-05-25T10:05:01;95133.53;;;19.71;87.07
20612;BME280;10465;42.686;23.364;2023-05-25T10:07:27;95156.16;;;19.89;85.19
20612;BME280;10465;42.686;23.364;2023-05-25T10:09:56;95145.88;;;19.95;83.92
20612;BME280;10465;42.686;23.364;2023-05-25T10:12:23;95139.59;;;19.87;84.13
20612;BME280;10465;42.686;23.364;2023-05-25T10:14:49;95141.69;;;19.97;84.45
20612;BME280;10465;42.686;23.364;2023-05-25T10:17:20;95143.59;;;20.20;85.56
20612;BME280;10465;42.686;23.364;2023-05-25T10:19:58;95143.59;;;20.20;83.59
20612;BME280;10465;42.686;23.364;2023-05-25T10:22:29;95136.38;;;20.24;83.50
20612;BME280;10465;42.686;23.364;2023-05-25T10:27:46;95135.16;;;20.44;83.43
20612;BME280;10465;42.686;23.364;2023-05-25T10:30:13;95106.72;;;20.43;80.13
20612;BME280;10465;42.686;23.364;2023-05-25T10:32:39;95123.63;;;20.67;78.61
20612;BME280;10465;42.686;23.364;2023-05-25T10:35:05;95109.84;;;20.72;78.47
20612;BME280;10465;42.686;23.364;2023-05-25T10:37:33;95107.19;;;20.76;78.69
20612;BME280;10465;42.686;23.364;2023-05-25T10:40:00;95107.69;;;20.85;78.27
20612;BME280;10465;42.686;23.364;2023-05-25T10:42:26;95110.28;;;20.78;77.20
20612;BME280;10465;42.686;23.364;2023-05-25T10:44:52;95093.03;;;20.79;75.48
20612;BME280;10465;42.686;23.364;2023-05-25T10:47:19;95084.97;;;20.79;75.08
20612;BME280;10465;42.686;23.364;2023-05-25T10:49:56;95102.78;;;20.90;73.98
20612;BME280;10465;42.686;23.364;2023-05-25T10:52:31;95089.63;;;20.85;73.69
20612;BME280;10465;42.686;23.364;2023-05-25T10:54:58;95086.56;;;20.83;72.21
20612;BME280;10465;42.686;23.364;2023-05-25T10:57:26;95077.28;;;20.81;71.12
20612;BME280;10465;42.686;23.364;2023-05-25T10:59:54;95084.25;;;20.85;71.08
20612;BME280;10465;42.686;23.364;2023-05-25T11:02:28;95079.53;;;20.75;73.09
20612;BME280;10465;42.686;23.364;2023-05-25T11:05:34;95078.38;;;20.76;74.89
20612;BME280;10465;42.686;23.364;2023-05-25T11:08:07;95070.09;;;20.58;75.11
20612;BME280;10465;42.686;23.364;2023-05-25T11:16:11;95086.06;;;20.78;74.72
20612;BME280;10465;42.686;23.364;2023-05-25T11:18:40;95072.78;;;20.62;74.00
20612;BME280;10465;42.686;23.364;2023-05-25T11:21:20;95066.38;;;20.70;73.05
20612;BME280;10465;42.686;23.364;2023-05-25T11:23:56;95078.81;;;20.82;70.38
20612;BME280;10465;42.686;23.364;2023-05-25T11:26:26;95080.78;;;20.85;71.06
20612;BME280;10465;42.686;23.364;2023-05-25T11:28:54;95082.28;;;20.82;70.04
20612;BME280;10465;42.686;23.364;2023-05-25T11:31:28;95079.88;;;20.73;69.66
20612;BME280;10465;42.686;23.364;2023-05-25T11:33:56;95073.22;;;20.64;67.48
20612;BME280;10465;42.686;23.364;2023-05-25T11:36:23;95069.00;;;20.63;67.85
20612;BME280;10465;42.686;23.364;2023-05-25T11:38:49;95077.84;;;20.63;68.49
20612;BME280;10465;42.686;23.364;2023-05-25T11:41:20;95087.38;;;20.61;68.02
20612;BME280;10465;42.686;23.364;2023-05-25T11:43:49;95086.22;;;20.58;68.48
20612;BME280;10465;42.686;23.364;2023-05-25T11:46:19;95081.88;;;20.50;69.06
20612;BME280;10465;42.686;23.364;2023-05-25T11:48:48;95058.72;;;20.45;70.56
20612;BME280;10465;42.686;23.364;2023-05-25T11:51:16;95072.78;;;20.58;71.66
20612;BME280;10465;42.686;23.364;2023-05-25T11:53:42;95076.75;;;20.68;71.66
20612;BME280;10465;42.686;23.364;2023-05-25T11:56:08;95076.97;;;20.86;71.00
20612;BME280;10465;42.686;23.364;2023-05-25T11:58:34;95080.59;;;21.01;71.56
20612;BME280;10465;42.686;23.364;2023-05-25T12:01:20;95059.91;;;21.05;69.54
20612;BME280;10465;42.686;23.364;2023-05-25T12:03:47;95042.88;;;20.97;69.92
20612;BME280;10465;42.686;23.364;2023-05-25T12:06:42;95060.91;;;21.27;69.91
20612;BME280;10465;42.686;23.364;2023-05-25T12:09:11;95073.53;;;21.53;69.13
20612;BME280;10465;42.686;23.364;2023-05-25T12:11:37;95072.88;;;21.66;69.55
20612;BME280;10465;42.686;23.364;2023-05-25T12:14:04;95057.56;;;21.74;68.51
20612;BME280;10465;42.686;23.364;2023-05-25T12:16:34;95062.94;;;22.15;66.50
20612;BME280;10465;42.686;23.364;2023-05-25T12:19:03;95060.50;;;22.54;65.33
20612;BME280;10465;42.686;23.364;2023-05-25T12:21:29;95047.88;;;22.69;65.09
20612;BME280;10465;42.686;23.364;2023-05-25T12:23:55;95026.66;;;22.71;61.53
20612;BME280;10465;42.686;23.364;2023-05-25T12:26:21;95047.94;;;22.83;58.66
20612;BME280;10465;42.686;23.364;2023-05-25T12:31:30;95027.53;;;22.89;57.33
20612;BME280;10465;42.686;23.364;2023-05-25T12:34:12;95038.88;;;23.34;56.46
20612;BME280;10465;42.686;23.364;2023-05-25T12:36:39;95041.63;;;23.52;56.71
20612;BME280;10465;42.686;23.364;2023-05-25T12:39:05;95037.78;;;23.64;55.97
20612;BME280;10465;42.686;23.364;2023-05-25T12:41:41;95030.47;;;23.72;55.07
20612;BME280;10465;42.686;23.364;2023-05-25T12:44:25;95027.00;;;23.71;54.89
20612;BME280;10465;42.686;23.364;2023-05-25T12:46:53;95021.59;;;23.82;55.79
20612;BME280;10465;42.686;23.364;2023-05-25T12:49:25;95019.69;;;23.79;53.25
20612;BME280;10465;42.686;23.364;2023-05-25T12:51:52;95011.19;;;23.84;52.92
20612;BME280;10465;42.686;23.364;2023-05-25T12:54:35;94993.78;;;23.81;53.59
20612;BME280;10465;42.686;23.364;2023-05-25T12:57:05;95009.25;;;23.99;52.18
20612;BME280;10465;42.686;23.364;2023-05-25T12:59:31;95000.34;;;24.02;53.48
20612;BME280;10465;42.686;23.364;2023-05-25T13:01:57;94970.25;;;23.92;53.41
20612;BME280;10465;42.686;23.364;2023-05-25T13:04:23;94990.69;;;24.08;52.71